Nebraska City, NE

10:53 AM CDT on May 23, 2015 (GMT -0500)
Plattsmouth Municipal | | Change Station
CLOSE
Current Station
Airport
Location: Plattsmouth,
Elevation: 1201 ft
Nearby Weather Stations

Elev 1201 ft 40.95 °N, 95.92 °W | Updated 18 minutes ago

Overcast
Overcast
57 °F
Feels Like 57 °F
N
10
Wind Variable Wind from SE

Today
High -- | Low -- °F
--% Chance of Precip.
Yesterday
High -- | Low -- °F
Precip. -- in
5:59 AM 8:40 PM
Waxing Crescent, 31% visible
Pressure 30.20 in
Visibility 4.0 miles
Clouds Mostly Cloudy 500 ft
Overcast 1100 ft
Dew Point 55 °F
Humidity 92%
Rainfall 0.00 in
Snow Depth Not available.
UV 2 out of 12
Pollen 6.00 out of 12
Air Quality Not available.
Flu Activity No Activity
METAR KPMV 231535Z AUTO 13009KT 4SM BR BKN005 OVC011 14/13 A3020 RMK AO2 T01400128

More Conditions Fewer Conditions

Pressure 30.20 in
Visibility 4.0 miles
Clouds Mostly Cloudy 500 ft
Overcast 1100 ft
Dew Point 55 °F
Humidity 92%
Rainfall 0.00 in
Snow Depth Not available.
UV 2 out of 12
Pollen 6.00 out of 12
Air Quality Not available.
Flu Activity No Activity
METAR KPMV 231535Z AUTO 13009KT 4SM BR BKN005 OVC011 14/13 A3020 RMK AO2 T01400128

More Conditions Fewer Conditions

10-Day Weather Forecast

Almanac

Astronomy

May. 23, 2015 Rise Set
Actual Time
Civil Twilight
Nautical Twilight
Astronomical Twilight
Moon
Length of Visible Light
Length of Day
Tomorrow will be .
, % of the Moon is Illuminated

Today's Extremes

State Highs State Lows

Community

WunderPhotos

Upload Photos

1,823,504 photos uploaded!

WunderBlogs® & News

Nearby

Air Quality

  Air Quality AQ Index Pollutant
Not available.

Snow Depth

Station Depth Elevation

Earthquake Activity

City Distance Mag. Time & Date
Minimum magnitude displayed is 2.5.

Coastal Water Temperatures

Place Temperature

Stations

Nearby Weather Stations

Station Location Temp. Windchill Dew Point Humidity Wind Precip. Elev Updated Type